Item Display Status Serial CT Sensor

Mooring Depth: 1 m

 

Deployed Sensor

  • Serial Number: 8800
  • NDBC Property Number: 35201
  • Start Date: 3/30/2020 (09:50:46 Z)
  • End Date: Currently Active
Water Temperature [°C]     6 entries per hour
Showing data from 8/20/2020 (15:40:00 Z) to 8/19/2020 (00:00:01 Z)
Previous Next [ Day | 3-Days | 7-Days ]
First Last
Prev [ Day | 3-Days | 7-Days ] Next
First Last

Start Time:     :
End Time:     :     
Time (in GMT) :00 :50 :40 :30 :20 :10
Previous Next [ Day | 3-Days | 7-Days ]
First Last
Prev [ Day | 3-Days | 7-Days ] Next
First Last


123 => good data
MM => data is determined as missing
-- => data not received/configured
Back to Top Back to Top
8/20/2020 16:00 to 15:10 -- -- 24.367 24.364 24.351 24.369
8/20/2020 15:00 to 14:10 24.356 24.358 24.359 24.361 24.362 24.362
8/20/2020 14:00 to 13:10 24.372 24.362 24.378 24.381 24.384 24.382
8/20/2020 13:00 to 12:10 24.377 24.371 24.397 24.390 24.380 24.377
8/20/2020 12:00 to 11:10 24.402 24.398 24.410 24.403 24.397 24.401
8/20/2020 11:00 to 10:10 24.398 24.413 24.406 24.419 24.424 24.413
8/20/2020 10:00 to 9:10 24.415 24.422 24.416 24.429 24.425 24.435
8/20/2020 09:00 to 8:10 24.438 24.433 24.437 24.426 24.441 24.440
8/20/2020 08:00 to 7:10 24.444 24.449 24.451 24.461 24.480 24.449
8/20/2020 07:00 to 6:10 24.464 24.461 24.471 24.473 24.468 24.481
8/20/2020 06:00 to 5:10 24.479 24.494 24.496 24.497 24.506 24.487
8/20/2020 05:00 to 4:10 24.500 24.499 24.499 24.507 24.529 24.525
8/20/2020 04:00 to 3:10 24.516 24.533 24.514 24.521 24.528 24.537
8/20/2020 03:00 to 2:10 24.537 24.535 24.536 24.530 24.528 24.535
8/20/2020 02:00 to 1:10 24.554 24.549 24.555 24.553 24.566 24.557
8/20/2020 01:00 to 0:10 24.579 24.584 24.601 24.600 24.597 24.614
8/20/2020 00:00 to 23:10 24.620 24.617 24.627 24.640 24.635 24.645
8/19/2020 23:00 to 22:10 24.647 24.661 24.645 24.655 24.663 24.664
8/19/2020 22:00 to 21:10 24.664 24.661 24.655 24.661 24.671 24.654
8/19/2020 21:00 to 20:10 24.668 24.658 24.652 24.633 24.643 24.654
8/19/2020 20:00 to 19:10 24.640 24.648 24.632 24.635 24.639 24.628
8/19/2020 19:00 to 18:10 24.620 24.605 24.606 24.596 24.598 24.590
8/19/2020 18:00 to 17:10 24.580 24.576 24.568 24.574 24.574 24.554
8/19/2020 17:00 to 16:10 24.552 24.548 24.547 24.554 24.549 24.547
8/19/2020 16:00 to 15:10 -- 24.539 24.543 24.544 24.541 24.543
8/19/2020 15:00 to 14:10 24.545 24.548 24.545 24.552 24.540 24.545
8/19/2020 14:00 to 13:10 24.550 24.561 24.554 24.547 -- 24.564
8/19/2020 13:00 to 12:10 24.562 24.548 24.555 24.572 24.553 24.562
8/19/2020 12:00 to 11:10 24.569 24.586 24.577 24.586 24.589 24.591
8/19/2020 11:00 to 10:10 24.590 24.583 24.587 24.579 24.587 24.599
8/19/2020 10:00 to 9:10 24.607 24.601 24.606 24.607 24.596 24.601
8/19/2020 09:00 to 8:10 24.616 24.614 24.606 24.592 24.604 24.608
8/19/2020 08:00 to 7:10 24.607 24.602 24.613 24.617 24.615 24.619
8/19/2020 07:00 to 6:10 24.604 24.616 24.610 24.625 24.625 24.623
8/19/2020 06:00 to 5:10 24.624 24.631 24.632 24.627 24.618 24.625
8/19/2020 05:00 to 4:10 24.624 24.628 24.627 24.637 24.627 24.630
8/19/2020 04:00 to 3:10 24.635 24.639 24.638 24.639 24.644 24.642
8/19/2020 03:00 to 2:10 24.640 24.650 24.653 24.652 24.661 24.661
8/19/2020 02:00 to 1:10 24.659 24.658 24.673 24.661 24.660 24.677
8/19/2020 01:00 to 0:10 24.667 24.681 24.682 24.688 24.680 24.688

 

 

 

Conductivity [S/m]     6 entries per hour
Showing data from 8/20/2020 (15:40:00 Z) to 8/19/2020 (00:00:01 Z)
Previous Next [ Day | 3-Days | 7-Days ]
First Last
Prev [ Day | 3-Days | 7-Days ] Next
First Last

Start Time:     :
End Time:     :     
Time (in GMT) :00 :50 :40 :30 :20 :10
Previous Next [ Day | 3-Days | 7-Days ]
First Last
Prev [ Day | 3-Days | 7-Days ] Next
First Last


123 => good data
MM => data is determined as missing
-- => data not received/configured
Back to Top Back to Top
8/20/2020 16:00 to 15:10 -- -- 5.28228 5.28196 5.28024 5.28246
8/20/2020 15:00 to 14:10 5.28087 5.28117 5.28110 5.28121 5.28139 5.28156
8/20/2020 14:00 to 13:10 5.28236 5.28150 5.28311 5.28331 5.28389 5.28326
8/20/2020 13:00 to 12:10 5.28348 5.28325 5.28484 5.28436 5.28353 5.28327
8/20/2020 12:00 to 11:10 5.28531 5.28518 5.28580 5.28578 5.28529 5.28545
8/20/2020 11:00 to 10:10 5.28528 5.28657 5.28618 5.28779 5.28762 5.28688
8/20/2020 10:00 to 9:10 5.28695 5.28749 5.28694 5.28832 5.28799 5.28888
8/20/2020 09:00 to 8:10 5.28881 5.28840 5.28887 5.28801 5.28902 5.28924
8/20/2020 08:00 to 7:10 5.28993 5.29003 5.29069 5.29118 5.29301 5.29043
8/20/2020 07:00 to 6:10 5.29108 5.29153 5.29217 5.29237 5.29217 5.29312
8/20/2020 06:00 to 5:10 5.29288 5.29438 5.29483 5.29491 5.29568 5.29405
8/20/2020 05:00 to 4:10 5.29523 5.29501 5.29531 5.29607 5.29787 5.29737
8/20/2020 04:00 to 3:10 5.29725 5.29817 5.29697 5.29752 5.29792 5.29841
8/20/2020 03:00 to 2:10 5.29858 5.29828 5.29858 5.29803 5.29776 5.29856
8/20/2020 02:00 to 1:10 5.30045 5.30006 5.30043 5.30025 5.30146 5.30103
8/20/2020 01:00 to 0:10 5.30301 5.30369 5.30528 5.30507 5.30545 5.30693
8/20/2020 00:00 to 23:10 5.30724 5.30708 5.30818 5.30971 5.30856 5.31020
8/19/2020 23:00 to 22:10 5.31036 5.31167 5.31002 5.31116 5.31211 5.31190
8/19/2020 22:00 to 21:10 5.31209 5.31163 5.31105 5.31163 5.31275 5.31134
8/19/2020 21:00 to 20:10 5.31219 5.31139 5.31074 5.30876 5.30931 5.31104
8/19/2020 20:00 to 19:10 5.30946 5.31027 5.30844 5.30895 5.30940 5.30791
8/19/2020 19:00 to 18:10 5.30722 5.30571 5.30507 5.30442 5.30502 5.30348
8/19/2020 18:00 to 17:10 5.30305 5.30252 5.30172 5.30216 5.30200 5.30009
8/19/2020 17:00 to 16:10 5.29973 5.29943 5.29950 5.30006 5.29940 5.29949
8/19/2020 16:00 to 15:10 5.29919 5.29852 5.29886 5.29895 5.29883 5.29889
8/19/2020 15:00 to 14:10 5.29912 5.29916 5.29905 5.29955 5.29855 5.29917
8/19/2020 14:00 to 13:10 5.29989 5.30055 5.30026 5.29921 5.30033 5.30087
8/19/2020 13:00 to 12:10 5.30055 5.29973 5.30035 5.30159 5.30041 5.30080
8/19/2020 12:00 to 11:10 5.30145 5.30297 5.30212 5.30298 5.30337 5.30348
8/19/2020 11:00 to 10:10 5.30370 5.30293 5.30349 5.30357 5.30315 5.30428
8/19/2020 10:00 to 9:10 5.30490 5.30449 5.30507 5.30454 5.30382 5.30448
8/19/2020 09:00 to 8:10 5.30584 5.30579 5.30482 5.30391 5.30489 5.30508
8/19/2020 08:00 to 7:10 5.30502 5.30477 5.30540 5.30611 5.30556 5.30610
8/19/2020 07:00 to 6:10 5.30487 5.30593 5.30548 5.30650 5.30636 5.30628
8/19/2020 06:00 to 5:10 5.30615 5.30691 5.30700 5.30665 5.30572 5.30626
8/19/2020 05:00 to 4:10 5.30640 5.30654 5.30671 5.30711 5.30628 5.30666
8/19/2020 04:00 to 3:10 5.30690 5.30720 5.30728 5.30682 5.30792 5.30754
8/19/2020 03:00 to 2:10 5.30746 5.30791 5.30829 5.30833 5.30919 5.30903
8/19/2020 02:00 to 1:10 5.30896 5.30858 5.31032 5.30925 5.30995 5.31016
8/19/2020 01:00 to 0:10 5.30959 5.31091 5.31094 5.31173 5.31128 5.31160

 

 

 

Salinity [psu]     6 entries per hour
Showing data from 8/20/2020 (15:40:00 Z) to 8/19/2020 (00:00:01 Z)
Previous Next [ Day | 3-Days | 7-Days ]
First Last
Prev [ Day | 3-Days | 7-Days ] Next
First Last

Start Time:     :
End Time:     :     
Time (in GMT) :00 :50 :40 :30 :20 :10
Previous Next [ Day | 3-Days | 7-Days ]
First Last
Prev [ Day | 3-Days | 7-Days ] Next
First Last


123 => good data
MM => data is determined as missing
-- => data not received/configured
Back to Top Back to Top
8/20/2020 16:00 to 15:10 -- -- 35.31 35.31 35.31 35.31
8/20/2020 15:00 to 14:10 35.31 35.31 35.31 35.31 35.31 35.31
8/20/2020 14:00 to 13:10 35.31 35.31 35.31 35.31 35.31 35.31
8/20/2020 13:00 to 12:10 35.31 35.31 35.30 35.31 35.31 35.31
8/20/2020 12:00 to 11:10 35.30 35.31 35.30 35.31 35.31 35.31
8/20/2020 11:00 to 10:10 35.31 35.31 35.31 35.31 35.30 35.31
8/20/2020 10:00 to 9:10 35.31 35.31 35.31 35.31 35.31 35.31
8/20/2020 09:00 to 8:10 35.30 35.30 35.30 35.31 35.30 35.30
8/20/2020 08:00 to 7:10 35.31 35.30 35.31 35.30 35.30 35.31
8/20/2020 07:00 to 6:10 35.30 35.30 35.30 35.30 35.30 35.30
8/20/2020 06:00 to 5:10 35.30 35.30 35.30 35.30 35.30 35.30
8/20/2020 05:00 to 4:10 35.30 35.30 35.30 35.30 35.30 35.30
8/20/2020 04:00 to 3:10 35.30 35.30 35.30 35.30 35.30 35.30
8/20/2020 03:00 to 2:10 35.30 35.30 35.30 35.30 35.30 35.30
8/20/2020 02:00 to 1:10 35.30 35.30 35.30 35.30 35.30 35.30
8/20/2020 01:00 to 0:10 35.30 35.30 35.30 35.30 35.30 35.30
8/20/2020 00:00 to 23:10 35.30 35.30 35.30 35.30 35.30 35.30
8/19/2020 23:00 to 22:10 35.30 35.30 35.30 35.30 35.30 35.30
8/19/2020 22:00 to 21:10 35.30 35.30 35.30 35.30 35.30 35.30
8/19/2020 21:00 to 20:10 35.30 35.30 35.30 35.30 35.29 35.30
8/19/2020 20:00 to 19:10 35.30 35.30 35.30 35.30 35.30 35.30
8/19/2020 19:00 to 18:10 35.30 35.30 35.29 35.30 35.30 35.29
8/19/2020 18:00 to 17:10 35.30 35.30 35.30 35.30 35.29 35.30
8/19/2020 17:00 to 16:10 35.29 35.30 35.30 35.30 35.29 35.30
8/19/2020 16:00 to 15:10 -- 35.30 35.30 35.29 35.30 35.30
8/19/2020 15:00 to 14:10 35.30 35.29 35.29 35.29 35.29 35.30
8/19/2020 14:00 to 13:10 35.30 35.29 35.30 35.29 -- 35.29
8/19/2020 13:00 to 12:10 35.29 35.30 35.30 35.29 35.30 35.29
8/19/2020 12:00 to 11:10 35.29 35.29 35.29 35.29 35.29 35.29
8/19/2020 11:00 to 10:10 35.29 35.29 35.30 35.30 35.29 35.29
8/19/2020 10:00 to 9:10 35.29 35.29 35.29 35.29 35.29 35.29
8/19/2020 09:00 to 8:10 35.29 35.29 35.29 35.29 35.29 35.29
8/19/2020 08:00 to 7:10 35.29 35.29 35.29 35.29 35.29 35.29
8/19/2020 07:00 to 6:10 35.29 35.29 35.29 35.29 35.29 35.29
8/19/2020 06:00 to 5:10 35.29 35.29 35.29 35.29 35.29 35.29
8/19/2020 05:00 to 4:10 35.29 35.29 35.29 35.28 35.29 35.29
8/19/2020 04:00 to 3:10 35.28 35.28 35.28 35.28 35.28 35.28
8/19/2020 03:00 to 2:10 35.28 35.28 35.28 35.28 35.28 35.28
8/19/2020 02:00 to 1:10 35.28 35.28 35.28 35.28 35.29 35.27
8/19/2020 01:00 to 0:10 35.28 35.28 35.28 35.28 35.28 35.28